Time;durP1;ratioP1;P1;durP2;ratioP2;P2;SDS_P1;SDS_P2;PMS_P1;PMS_P2;Temp;Humidity;BMP_temperature;BMP_pressure;BME280_temperature;BME280_humidity;BME280_pressure;Samples;Min_cycle;Max_cycle;Signal;HPM_P1;HPM_P2
2022/06/10 00:01:22;;;;;;;5.57;3.80;;;15.10;99.90;;;-141.84;83.53;18584.47;5067987;28;20311;-58
2022/06/10 00:03:53;;;;;;;4.45;4.00;;;15.10;99.90;;;-141.84;84.51;18570.22;5067734;28;20221;-58
2022/06/10 00:06:21;;;;;;;4.38;4.00;;;15.10;99.90;;;-141.84;85.73;18517.41;5067478;28;20605;-58
2022/06/10 00:08:50;;;;;;;5.38;4.88;;;15.00;99.90;;;-141.84;85.77;18586.50;5068031;28;20333;-58
2022/06/10 00:11:18;;;;;;;5.32;4.82;;;15.00;99.90;;;-141.84;86.71;18566.16;5067951;28;20296;-56
2022/06/10 00:13:49;;;;;;;9.15;8.30;;;14.90;99.90;;;-141.84;86.77;18549.91;5068497;28;20308;-56
2022/06/10 00:16:22;;;;;;;10.25;9.27;;;14.90;99.90;;;-141.84;86.53;18586.50;5068204;28;20319;-59
2022/06/10 00:18:51;;;;;;;10.07;9.07;;;14.90;99.90;;;-141.84;86.85;18535.69;5068088;28;20224;-57
2022/06/10 00:21:22;;;;;;;9.18;8.27;;;14.90;99.90;;;-141.84;86.86;18547.88;5068126;28;20237;-57
2022/06/10 00:23:50;;;;;;;7.72;7.03;;;14.90;99.90;;;-141.84;86.98;18553.97;5066719;28;20224;-58
2022/06/10 00:26:19;;;;;;;7.80;7.00;;;14.90;99.90;;;-141.84;88.03;18525.53;5067303;28;20203;-59
2022/06/10 00:28:49;;;;;;;7.95;6.95;;;14.80;99.90;;;-141.84;88.44;18484.91;5068157;28;20684;-57
2022/06/10 00:31:18;;;;;;;7.43;6.73;;;14.80;99.90;;;-141.84;88.77;18484.91;5067544;28;20738;-56
2022/06/10 00:33:52;;;;;;;6.70;5.53;;;14.70;99.90;;;-141.84;88.94;18472.72;5067494;28;20597;-58
2022/06/10 00:36:21;;;;;;;6.35;5.75;;;14.70;99.90;;;-141.84;89.13;18462.56;5067656;28;20369;-58
2022/06/10 00:38:49;;;;;;;6.40;5.75;;;14.70;99.90;;;-141.84;88.54;18509.28;5067139;28;20299;-60
2022/06/10 00:41:18;;;;;;;5.95;5.43;;;14.70;99.90;;;-141.84;89.17;18464.59;5067380;28;20247;-55
2022/06/10 00:43:47;;;;;;;5.80;5.30;;;14.70;99.90;;;-141.84;89.39;18488.97;5068016;28;20340;-56
2022/06/10 00:46:35;;;;;;;5.72;5.10;;;14.60;99.90;;;-141.84;89.14;18486.94;5067706;28;20317;-58
2022/06/10 00:49:15;;;;;;;6.20;5.60;;;14.60;99.90;;;-141.84;90.10;18460.53;5067533;28;20256;-56
2022/06/10 00:51:48;;;;;;;5.73;4.80;;;14.50;99.90;;;-141.84;90.26;18452.41;5051553;28;20643;-58
2022/06/10 00:54:23;;;;;;;8.18;5.43;;;14.40;99.90;;;-141.84;91.23;18413.78;5067107;28;20924;-56
2022/06/10 00:56:55;;;;;;;6.10;5.40;;;14.40;99.90;;;-141.84;91.27;18358.94;5066701;28;20312;-55
2022/06/10 00:59:29;;;;;;;5.87;5.27;;;14.30;99.90;;;-141.84;91.48;18385.34;5067205;28;20224;-59
2022/06/10 01:02:04;;;;;;;5.50;5.00;;;14.30;99.90;;;-141.84;91.78;18403.63;5067959;28;20189;-56
2022/06/10 01:04:33;;;;;;;6.00;5.40;;;14.30;99.90;;;-141.84;91.23;18365.03;5066868;28;20228;-58
2022/06/10 01:07:02;;;;;;;5.47;4.97;;;14.30;99.90;;;-141.84;91.10;18344.72;5067324;28;20311;-58
2022/06/10 01:09:33;;;;;;;6.00;5.37;;;14.30;99.90;;;-141.84;92.14;18334.56;5066996;28;20264;-57
2022/06/10 01:12:47;;;;;;;7.03;5.33;;;14.20;99.90;;;-141.84;92.07;18338.63;5067122;28;20320;-59
2022/06/10 01:15:36;;;;;;;5.50;4.97;;;14.20;99.90;;;-141.84;92.51;18332.53;5063629;28;20722;-58
2022/06/10 01:18:26;;;;;;;5.80;4.90;;;14.20;99.90;;;-141.84;92.83;18259.41;5066935;28;20307;-56
2022/06/10 01:21:17;;;;;;;5.65;5.15;;;14.10;99.90;;;-141.84;92.40;18271.59;5066771;28;20258;-58
2022/06/10 01:24:31;;;;;;;5.97;5.30;;;14.10;99.90;;;-141.84;91.92;18306.13;5061040;28;20866;-59
2022/06/10 01:28:04;;;;;;;5.00;4.60;;;14.10;99.90;;;-141.84;92.51;18285.81;5061422;28;20790;-56
2022/06/10 01:31:07;;;;;;;7.30;4.70;;;14.10;99.90;;;-141.84;93.01;18241.13;5056698;28;20704;-59
2022/06/10 01:34:08;;;;;;;5.47;4.97;;;14.10;99.90;;;-141.84;93.26;18224.84;5066508;28;20311;-58
2022/06/10 01:36:50;;;;;;;5.40;4.90;;;14.00;99.90;;;-141.84;93.20;18224.84;5066757;28;20256;-57
2022/06/10 01:39:33;;;;;;;6.80;5.03;;;14.00;99.90;;;-141.84;93.63;18151.72;5066817;28;20263;-57
2022/06/10 01:42:13;;;;;;;5.67;5.07;;;14.00;99.90;;;-141.84;92.95;18167.97;5066831;28;20786;-58
2022/06/10 01:44:56;;;;;;;5.17;4.70;;;14.00;99.90;;;-141.84;92.92;18159.84;5066687;28;20307;-59
2022/06/10 01:47:36;;;;;;;5.30;4.87;;;14.00;99.90;;;-141.84;93.22;18139.53;5066384;28;20207;-56
2022/06/10 01:50:13;;;;;;;5.53;5.03;;;13.90;99.90;;;-141.84;93.20;18133.44;5067138;28;20246;-58
2022/06/10 01:52:49;;;;;;;5.10;4.63;;;13.90;99.90;;;-141.84;93.21;18119.22;5066533;28;20220;-58
2022/06/10 01:55:29;;;;;;;5.30;4.80;;;13.90;99.90;;;-141.84;92.88;18111.09;5066396;28;20588;-58
2022/06/10 01:58:06;;;;;;;5.60;5.10;;;13.90;99.90;;;-141.84;93.36;18054.22;5066778;28;20607;-57
2022/06/10 02:00:42;;;;;;;5.30;4.80;;;13.80;99.90;;;-141.84;93.50;18060.31;5066684;28;20224;-59
2022/06/10 02:03:21;;;;;;;5.10;4.57;;;13.80;99.90;;;-141.84;93.65;18056.25;5066456;28;20239;-54
2022/06/10 02:05:56;;;;;;;5.43;4.70;;;13.80;99.90;;;-141.84;93.75;17934.38;5064375;28;20714;-58
2022/06/10 02:08:33;;;;;;;5.23;4.73;;;13.80;99.90;;;-141.84;93.98;17958.75;5066165;28;20728;-57
2022/06/10 02:11:08;;;;;;;5.23;4.83;;;13.70;99.90;;;-141.84;94.27;17909.97;5067349;28;20192;-58
2022/06/10 02:13:43;;;;;;;5.70;4.80;;;13.70;99.90;;;-141.84;93.64;17899.81;5066253;28;20259;-57
2022/06/10 02:16:21;;;;;;;7.17;4.90;;;13.70;99.90;;;-141.84;93.58;17891.69;5066182;28;20266;-57
2022/06/10 02:18:59;;;;;;;5.20;4.70;;;13.60;99.90;;;-141.84;93.49;17879.50;5066141;28;20303;-55
2022/06/10 02:21:37;;;;;;;6.53;4.90;;;13.60;99.90;;;-141.84;93.67;17834.81;5065347;28;20719;-58
2022/06/10 02:24:12;;;;;;;7.10;4.73;;;13.60;99.90;;;-141.84;94.25;17790.13;5066029;28;20335;-58
2022/06/10 02:26:43;;;;;;;5.53;4.90;;;13.50;99.90;;;-141.84;93.62;17822.63;5080787;28;20238;-59
2022/06/10 02:29:20;;;;;;;6.88;4.80;;;13.50;99.90;;;-141.84;92.42;17922.16;5071037;28;20200;-58
2022/06/10 02:31:53;;;;;;;5.20;4.70;;;13.60;99.90;;;-141.84;92.49;17873.41;5059882;28;20540;-58
2022/06/10 02:34:24;;;;;;;5.37;4.57;;;13.60;99.90;;;-141.84;92.65;17834.81;5065732;28;20770;-56
2022/06/10 02:37:04;;;;;;;5.47;4.30;;;13.60;99.90;;;-141.84;92.58;17863.25;5066105;28;20748;-57
2022/06/10 02:39:41;;;;;;;5.03;4.60;;;13.60;99.90;;;-141.84;92.19;17867.31;5065478;28;20224;-58
2022/06/10 02:42:21;;;;;;;4.90;4.40;;;13.60;99.90;;;-141.84;91.82;17889.66;5066048;28;20632;-57
2022/06/10 02:44:57;;;;;;;6.20;4.73;;;13.60;99.90;;;-141.84;91.31;17905.91;5065999;28;20310;-56
2022/06/10 02:47:40;;;;;;;4.73;4.33;;;13.60;99.90;;;-141.84;92.35;17849.03;5066377;28;20204;-57
2022/06/10 02:50:12;;;;;;;4.60;4.20;;;13.50;99.90;;;-141.84;92.54;17814.50;5070482;28;20311;-57
2022/06/10 02:52:42;;;;;;;4.60;4.20;;;13.50;99.90;;;-141.84;91.92;17830.75;5069724;28;20212;-55
2022/06/10 02:55:18;;;;;;;5.77;4.37;;;13.50;99.90;;;-141.84;92.84;17812.47;5068958;28;20316;-56
2022/06/10 03:04:06;;;;;;;5.53;4.53;;;13.30;99.90;;;-141.84;92.90;17727.16;5068784;28;20220;-60
2022/06/10 03:06:54;;;;;;;4.80;3.90;;;13.30;99.90;;;-141.84;93.61;17647.94;5060295;28;20984;-59
2022/06/10 03:09:40;;;;;;;6.80;4.47;;;13.30;99.90;;;-141.84;92.43;17743.41;5067533;28;20255;-56
2022/06/10 03:12:24;;;;;;;5.33;4.00;;;13.30;99.90;;;-141.84;92.88;17676.38;5068653;28;20319;-56
2022/06/10 03:15:07;;;;;;;6.60;4.47;;;13.30;99.90;;;-141.84;92.78;17680.44;5069239;28;20315;-57
2022/06/10 03:17:55;;;;;;;6.63;4.23;;;13.30;99.90;;;-141.84;92.93;17700.75;5068954;28;20262;-57
2022/06/10 03:20:36;;;;;;;4.87;3.80;;;13.30;99.90;;;-141.84;92.24;17749.50;5069417;28;20211;-59
2022/06/10 03:23:17;;;;;;;6.97;4.00;;;13.30;99.90;;;-141.84;92.58;17702.78;5069676;28;20286;-57
2022/06/10 03:25:53;;;;;;;4.90;4.47;;;13.40;99.90;;;-141.84;92.27;17735.28;5053612;28;20295;-56
2022/06/10 03:28:33;;;;;;;5.77;4.63;;;13.40;99.90;;;-141.84;92.53;17733.25;5069185;28;20264;-55
2022/06/10 03:31:09;;;;;;;4.53;4.13;;;13.40;99.90;;;-141.84;92.69;17686.53;5068618;28;20232;-59
2022/06/10 03:33:44;;;;;;;4.40;4.10;;;13.40;99.90;;;-141.84;91.62;17810.44;5075051;28;20216;-60
2022/06/10 03:36:16;;;;;;;6.53;4.50;;;13.40;99.90;;;-141.84;91.29;17773.88;5081120;28;20228;-57
2022/06/10 03:38:51;;;;;;;4.63;4.23;;;13.50;99.90;;;-141.84;91.44;17832.78;5069131;28;20554;-58
2022/06/10 03:41:22;;;;;;;6.53;4.60;;;13.50;99.90;;;-141.84;91.71;17786.06;5065615;28;20621;-58
2022/06/10 03:43:54;;;;;;;4.27;3.90;;;13.50;99.90;;;-141.84;90.07;17905.91;5069263;28;20206;-57
2022/06/10 03:46:30;;;;;;;5.77;4.20;;;13.60;99.90;;;-141.84;89.80;17899.81;5067884;28;20221;-58
2022/06/10 03:49:02;;;;;;;4.70;4.30;;;13.60;99.90;;;-141.84;90.56;17863.25;5068800;28;20217;-58
2022/06/10 03:51:32;;;;;;;4.37;3.97;;;13.60;99.90;;;-141.84;90.39;17867.31;5068286;28;20220;-57
2022/06/10 03:54:01;;;;;;;5.37;4.43;;;13.60;99.90;;;-141.84;91.31;17818.56;5068378;28;20270;-58
2022/06/10 03:56:31;;;;;;;4.83;4.43;;;13.70;99.90;;;-141.84;90.00;17895.75;5068665;28;20192;-57
2022/06/10 03:58:59;;;;;;;5.57;4.40;;;13.70;99.90;;;-141.84;88.49;18005.47;5069059;28;20232;-57
2022/06/10 04:01:28;;;;;;;4.80;4.40;;;13.80;99.90;;;-141.84;89.00;17968.91;5067665;28;20965;-58
2022/06/10 04:03:56;;;;;;;4.60;4.20;;;13.80;99.90;;;-141.84;88.61;17985.16;5067226;28;20231;-55
2022/06/10 04:06:24;;;;;;;4.90;4.40;;;13.90;99.90;;;-141.84;89.06;18015.63;5068405;28;20232;-55
2022/06/10 04:09:15;;;;;;;4.80;4.40;;;14.00;99.90;;;-141.84;88.03;18046.09;5068301;28;20243;-58
2022/06/10 04:11:43;;;;;;;4.93;4.40;;;14.00;99.90;;;-141.84;87.92;18027.81;5068517;28;20248;-58
2022/06/10 04:14:11;;;;;;;5.22;4.65;;;14.00;99.90;;;-141.84;88.13;18107.03;5069157;28;20320;-58
2022/06/10 04:16:39;;;;;;;4.60;4.20;;;14.00;99.90;;;-141.84;88.04;18082.66;5073046;28;20792;-58
2022/06/10 04:19:07;;;;;;;7.97;4.55;;;14.10;99.90;;;-141.84;87.10;18109.06;5078322;28;20223;-60
2022/06/10 04:21:35;;;;;;;5.73;4.53;;;14.10;99.90;;;-141.84;86.75;18159.84;5067835;28;20224;-60
2022/06/10 04:24:05;;;;;;;5.33;4.17;;;14.10;99.90;;;-141.84;86.83;18127.34;5078221;28;20452;-56
2022/06/10 04:26:35;;;;;;;5.70;4.73;;;14.10;99.90;;;-141.84;86.70;18153.75;5068003;28;20301;-60
2022/06/10 04:29:03;;;;;;;4.85;4.30;;;14.20;99.90;;;-141.84;85.84;18188.28;5068520;28;20283;-58
2022/06/10 04:31:32;;;;;;;5.10;4.70;;;14.30;99.90;;;-141.84;84.28;18241.13;5067895;28;20232;-57
2022/06/10 04:34:00;;;;;;;4.60;4.20;;;14.40;99.90;;;-141.84;85.50;18218.75;5067080;28;20221;-56
2022/06/10 04:36:29;;;;;;;5.88;4.40;;;14.50;99.90;;;-141.84;84.31;18287.84;5067788;28;20248;-57
2022/06/10 04:38:58;;;;;;;5.90;4.30;;;14.60;99.90;;;-141.84;84.60;18245.19;5067300;28;20228;-60
2022/06/10 04:41:27;;;;;;;5.23;4.53;;;14.70;99.90;;;-141.84;83.83;18304.09;5067552;28;20208;-58
2022/06/10 04:43:56;;;;;;;5.22;4.72;;;14.80;99.90;;;-141.84;82.06;18403.63;5068029;28;20196;-60
2022/06/10 04:46:28;;;;;;;5.27;4.77;;;14.90;99.90;;;-141.84;81.98;18401.59;5067535;28;20228;-57
2022/06/10 04:48:57;;;;;;;5.43;4.32;;;15.00;99.90;;;-141.84;81.20;18419.88;5067650;28;20228;-57
2022/06/10 04:51:25;;;;;;;4.18;3.63;;;15.40;99.90;;;-141.84;76.67;18641.34;5067298;28;20357;-57
2022/06/10 04:53:53;;;;;;;4.70;3.42;;;16.30;99.90;;;-141.84;64.08;19084.28;5066569;28;20331;-57
2022/06/10 04:56:21;;;;;;;4.05;3.15;;;17.50;99.90;;;-141.84;57.94;19399.25;5067813;28;20794;-59
2022/06/10 04:58:49;;;;;;;3.22;2.92;;;19.00;99.90;;;-141.84;48.20;19730.50;5067908;28;20236;-57
2022/06/10 05:01:19;;;;;;;3.90;2.85;;;20.10;99.90;;;-141.84;46.33;19844.31;5067121;28;20791;-59
2022/06/10 05:03:53;;;;;;;4.47;3.00;;;20.90;99.90;;;-141.84;41.97;20132.94;5066876;28;20233;-57
2022/06/10 05:06:21;;;;;;;5.07;2.80;;;21.60;99.90;;;-141.84;40.78;20301.63;5066967;28;20239;-58
2022/06/10 05:08:49;;;;;;;3.35;2.70;;;22.20;99.90;;;-141.84;40.07;20378.88;5067276;28;20228;-57
2022/06/10 05:11:17;;;;;;;4.75;2.70;;;22.20;99.90;;;-141.84;40.15;20358.56;5066454;28;20233;-60
2022/06/10 05:13:46;;;;;;;3.70;2.95;;;22.50;99.90;;;-141.84;39.63;20425.63;5067473;28;20243;-59
2022/06/10 05:16:14;;;;;;;4.05;2.90;;;22.40;99.90;;;-141.84;39.74;20399.19;5067378;28;20239;-58
2022/06/10 05:18:44;;;;;;;3.38;2.65;;;22.50;99.90;;;-141.84;39.93;20421.56;5067026;28;20255;-59
2022/06/10 05:21:12;;;;;;;3.60;2.58;;;22.50;99.90;;;-141.84;39.13;20476.44;5067156;28;20232;-57
2022/06/10 05:23:44;;;;;;;5.95;3.15;;;22.70;99.90;;;-141.84;37.86;20582.16;5050397;28;20311;-57
2022/06/10 05:26:13;;;;;;;2.78;2.58;;;22.90;99.90;;;-141.84;38.59;20523.19;5067419;28;20240;-59
2022/06/10 05:28:42;;;;;;;3.85;3.30;;;22.80;99.90;;;-141.84;39.59;20433.75;5066151;28;20223;-58
2022/06/10 05:31:10;;;;;;;4.30;3.10;;;22.50;99.90;;;-141.84;39.68;20419.53;5066917;28;20644;-57
2022/06/10 05:36:25;;;;;;;4.07;2.80;;;22.30;99.90;;;-141.84;40.50;20334.16;5056432;28;20624;-58
2022/06/10 05:38:55;;;;;;;5.32;3.47;;;22.10;99.90;;;-141.84;43.19;20082.13;5066710;28;20251;-57
2022/06/10 05:44:09;;;;;;;4.22;3.83;;;21.30;99.90;;;-141.84;49.21;19653.28;5067223;28;20285;-56
2022/06/10 05:46:38;;;;;;;4.80;3.70;;;20.60;99.90;;;-141.84;51.07;19535.41;5065870;28;20224;-57
2022/06/10 05:49:06;;;;;;;4.03;3.63;;;20.30;99.90;;;-141.84;52.82;19500.88;5066169;28;20593;-57
2022/06/10 05:51:36;;;;;;;6.35;3.67;;;20.10;99.90;;;-141.84;53.44;19435.84;5066461;28;21028;-58
2022/06/10 05:54:05;;;;;;;5.05;3.80;;;19.70;99.90;;;-141.84;54.20;19403.31;5066598;28;20307;-57
2022/06/10 05:56:33;;;;;;;4.00;3.55;;;19.50;99.90;;;-141.84;55.54;19372.84;5066694;28;20315;-53
2022/06/10 05:59:01;;;;;;;3.90;3.53;;;19.40;99.90;;;-141.84;55.57;19387.06;5066808;28;20211;-55
2022/06/10 06:01:30;;;;;;;4.43;3.50;;;19.40;99.90;;;-141.84;56.96;19334.22;5066656;28;20228;-56
2022/06/10 06:03:58;;;;;;;5.15;3.40;;;19.30;99.90;;;-141.84;56.46;19334.22;5065339;28;20728;-53
2022/06/10 06:06:26;;;;;;;3.95;3.63;;;19.40;99.90;;;-141.84;56.27;19342.34;5064603;28;20228;-55
2022/06/10 06:08:56;;;;;;;4.43;3.50;;;19.30;99.90;;;-141.84;55.33;19393.16;5066183;28;20235;-55
2022/06/10 06:11:24;;;;;;;4.40;3.33;;;19.50;99.90;;;-141.84;54.76;19378.94;5066154;28;20764;-53
2022/06/10 06:13:52;;;;;;;6.10;3.40;;;19.70;99.90;;;-141.84;55.64;19376.91;5066355;28;20296;-53
2022/06/10 06:16:21;;;;;;;4.53;4.00;;;19.60;99.90;;;-141.84;56.04;19346.44;5066131;28;20231;-55
2022/06/10 06:18:50;;;;;;;4.03;3.63;;;19.50;99.90;;;-141.84;54.93;19368.78;5064893;28;20224;-54
2022/06/10 06:21:18;;;;;;;4.03;3.67;;;19.60;99.90;;;-141.84;55.89;19342.34;5066458;28;20329;-55
2022/06/10 06:23:49;;;;;;;5.75;3.50;;;19.50;99.90;;;-141.84;55.37;19356.59;5067776;28;20246;-56
2022/06/10 06:26:19;;;;;;;3.53;3.20;;;19.60;99.90;;;-141.84;55.75;19317.97;5069898;28;20224;-53
2022/06/10 06:28:48;;;;;;;4.68;3.60;;;19.60;99.90;;;-141.84;55.73;19346.44;5070616;28;20211;-56
2022/06/10 06:31:16;;;;;;;5.70;3.10;;;19.50;99.90;;;-141.84;55.90;19370.81;5069948;28;20228;-55
2022/06/10 06:33:44;;;;;;;6.00;3.33;;;19.40;99.90;;;-141.84;56.32;19313.91;5069300;28;20256;-56
2022/06/10 06:36:20;;;;;;;4.43;2.95;;;19.30;99.90;;;-141.84;55.80;19374.88;5068947;28;20228;-57
2022/06/10 06:38:48;;;;;;;7.20;3.38;;;19.40;99.90;;;-141.84;54.46;19342.34;5069948;28;20223;-55
2022/06/10 06:41:19;;;;;;;4.68;3.00;;;19.50;99.90;;;-141.84;54.52;19387.06;5069580;28;20299;-56
2022/06/10 06:43:47;;;;;;;5.72;3.20;;;19.60;99.90;;;-141.84;53.95;19403.31;5069770;28;20313;-54
2022/06/10 06:46:19;;;;;;;5.95;4.15;;;19.70;99.90;;;-141.84;54.44;19374.88;5069363;28;20232;-56
2022/06/10 06:48:47;;;;;;;4.40;3.20;;;19.80;99.90;;;-141.84;55.02;19368.78;5069357;28;20221;-55
2022/06/10 06:51:16;;;;;;;6.00;2.90;;;20.00;99.90;;;-141.84;55.34;19399.25;5069715;28;20239;-55
2022/06/10 06:53:44;;;;;;;4.70;2.78;;;20.00;99.90;;;-141.84;53.35;19448.03;5068786;28;20300;-54
2022/06/10 06:56:13;;;;;;;5.68;2.47;;;20.10;99.90;;;-141.84;53.64;19417.56;5070265;28;20288;-55
2022/06/10 06:58:43;;;;;;;6.13;2.97;;;20.10;99.90;;;-141.84;53.69;19407.38;5069724;28;20221;-54
2022/06/10 07:01:11;;;;;;;4.82;3.08;;;20.10;99.90;;;-141.84;53.71;19446.00;5069403;28;20233;-51
2022/06/10 07:03:39;;;;;;;3.58;2.38;;;20.20;99.90;;;-141.84;53.91;19395.19;5068525;28;20331;-57
2022/06/10 07:06:07;;;;;;;4.35;3.38;;;20.20;99.90;;;-141.84;54.39;19391.13;5064556;28;20315;-52
2022/06/10 07:08:36;;;;;;;5.15;2.80;;;20.30;99.90;;;-141.84;53.76;19431.78;5068345;28;20228;-56
2022/06/10 07:11:07;;;;;;;3.67;3.13;;;20.30;99.90;;;-141.84;53.52;19446.00;5068397;28;20204;-56
2022/06/10 07:13:37;;;;;;;5.60;2.70;;;20.20;99.90;;;-141.84;54.60;19423.66;5071588;28;20228;-54
2022/06/10 07:16:09;;;;;;;4.88;2.83;;;20.30;99.90;;;-141.84;53.48;19407.38;5072421;28;20231;-62
2022/06/10 07:18:38;;;;;;;4.55;2.80;;;20.30;99.90;;;-141.84;53.94;19429.75;5071478;28;20234;-61
2022/06/10 07:21:06;;;;;;;4.65;2.85;;;20.20;99.90;;;-141.84;54.13;19439.91;5072336;28;20248;-60
2022/06/10 07:23:35;;;;;;;5.10;2.70;;;20.30;99.90;;;-141.84;53.92;19411.44;5072949;28;20373;-60
2022/06/10 07:26:05;;;;;;;5.30;2.55;;;20.30;99.90;;;-141.84;54.76;19391.13;5072821;28;20225;-60
2022/06/10 07:28:33;;;;;;;3.70;2.90;;;20.30;99.90;;;-141.84;53.78;19448.03;5073218;28;20225;-61
2022/06/10 07:31:01;;;;;;;4.32;2.78;;;20.40;99.90;;;-141.84;53.84;19419.59;5071919;28;20220;-60
2022/06/10 07:33:34;;;;;;;6.30;2.97;;;20.40;99.90;;;-141.84;55.17;19391.13;5072966;28;20251;-60
2022/06/10 07:36:02;;;;;;;3.22;2.25;;;20.30;99.90;;;-141.84;54.37;19391.13;5071774;28;20220;-60
2022/06/10 07:38:30;;;;;;;7.18;3.00;;;20.30;99.90;;;-141.84;54.57;19403.31;5074246;28;20284;-60
2022/06/10 07:43:45;;;;;;;5.70;2.67;;;20.20;99.90;;;-141.84;54.03;19411.44;5071906;28;20695;-60
2022/06/10 07:46:18;;;;;;;7.30;3.03;;;20.30;99.90;;;-141.84;53.61;19395.19;5075745;28;20220;-60
2022/06/10 07:48:49;;;;;;;3.85;2.72;;;20.20;99.90;;;-141.84;54.78;19395.19;5051896;28;20225;-61
2022/06/10 07:51:19;;;;;;;3.83;2.58;;;20.20;99.90;;;-141.84;55.02;19383.00;5068062;28;20216;-61
2022/06/10 07:53:48;;;;;;;5.65;2.88;;;20.20;99.90;;;-141.84;54.78;19407.38;5092310;28;20215;-60
2022/06/10 07:56:20;;;;;;;4.88;2.67;;;20.30;99.90;;;-141.84;54.73;19409.41;5092439;28;20276;-64
2022/06/10 07:58:49;;;;;;;4.75;3.10;;;20.30;99.90;;;-141.84;54.10;19419.59;5052318;28;20194;-61
2022/06/10 08:01:18;;;;;;;5.53;2.60;;;20.30;99.90;;;-141.84;54.24;19450.06;5058437;28;20312;-60
2022/06/10 08:03:50;;;;;;;4.90;2.78;;;20.40;99.90;;;-141.84;54.31;19401.28;5071057;28;20243;-61
2022/06/10 08:06:21;;;;;;;3.10;2.08;;;20.40;99.90;;;-141.84;54.84;19385.03;5073517;28;20680;-60
2022/06/10 08:08:50;;;;;;;3.63;2.78;;;20.50;99.90;;;-141.84;53.46;19411.44;5069366;28;20319;-61
2022/06/10 08:11:20;;;;;;;4.45;2.72;;;20.40;99.90;;;-141.84;53.88;19450.06;5074567;28;20205;-60
2022/06/10 08:13:48;;;;;;;4.18;2.50;;;20.50;99.90;;;-141.84;54.26;19395.19;5080107;28;20656;-61
2022/06/10 08:16:18;;;;;;;6.22;2.83;;;20.50;99.90;;;-141.84;54.13;19417.56;5075446;28;20692;-61
2022/06/10 08:18:47;;;;;;;4.25;2.70;;;20.50;99.90;;;-141.84;53.09;19470.38;5081039;28;20585;-60
2022/06/10 08:24:14;;;;;;;3.25;2.58;;;20.90;99.90;;;-141.84;51.80;19519.16;5070974;28;20311;-61
2022/06/10 08:26:43;;;;;;;5.20;3.17;;;21.10;99.90;;;-141.84;49.62;19572.00;5069244;28;20236;-60
2022/06/10 08:29:17;;;;;;;3.38;2.60;;;21.10;99.90;;;-141.84;50.12;19574.03;5068756;28;20196;-61
2022/06/10 08:31:46;;;;;;;3.00;2.50;;;21.10;99.90;;;-141.84;48.71;19628.91;5073644;28;20625;-61
2022/06/10 08:34:15;;;;;;;3.15;2.38;;;21.10;99.90;;;-141.84;49.29;19610.59;5069008;28;20228;-61
2022/06/10 08:36:45;;;;;;;4.38;2.92;;;21.20;99.90;;;-141.84;49.36;19647.19;5071582;28;20240;-60
2022/06/10 08:39:13;;;;;;;3.90;2.85;;;21.20;99.90;;;-141.84;48.96;19695.97;5070590;28;20307;-60
2022/06/10 08:42:09;;;;;;;5.03;2.83;;;21.30;99.90;;;-141.84;48.61;19641.09;5070813;28;20263;-60
2022/06/10 08:44:46;;;;;;;2.65;1.98;;;21.40;99.90;;;-141.84;47.19;19691.91;5071207;28;20731;-60
2022/06/10 08:47:43;;;;;;;5.13;2.63;;;21.40;99.90;;;-141.84;47.08;19669.53;5070598;28;20291;-61
2022/06/10 08:50:49;;;;;;;4.28;2.35;;;21.30;99.90;;;-141.84;48.60;19632.97;5071317;28;20192;-60
2022/06/10 08:53:46;;;;;;;3.92;2.75;;;21.00;99.90;;;-141.84;49.13;19616.72;5071168;28;20311;-60
2022/06/10 08:56:24;;;;;;;6.82;2.75;;;21.10;99.90;;;-141.84;47.50;19704.09;5070622;28;20213;-59
2022/06/10 08:59:02;;;;;;;6.65;2.45;;;21.20;99.90;;;-141.84;46.58;19706.13;5071592;28;20187;-60
2022/06/10 09:01:43;;;;;;;3.13;2.15;;;21.40;99.90;;;-141.84;46.45;19777.25;5070653;28;20224;-60
2022/06/10 09:04:28;;;;;;;3.67;2.92;;;21.60;99.90;;;-141.84;44.97;19834.16;5070463;28;20274;-60
2022/06/10 09:07:03;;;;;;;3.35;2.30;;;21.90;99.90;;;-141.84;45.17;19852.44;5070508;28;20242;-61
2022/06/10 09:09:34;;;;;;;3.75;2.42;;;22.10;99.90;;;-141.84;44.53;19899.19;5070718;28;20230;-59
2022/06/10 09:12:11;;;;;;;3.40;2.70;;;22.30;99.90;;;-141.84;45.33;19899.19;5070802;28;20982;-60
2022/06/10 09:14:41;;;;;;;4.90;2.60;;;22.40;99.90;;;-141.84;44.42;19903.25;5070715;28;20766;-60
2022/06/10 09:17:18;;;;;;;4.97;2.35;;;22.50;99.90;;;-141.84;43.97;19911.41;5070976;28;20633;-60
2022/06/10 09:19:59;;;;;;;4.03;2.20;;;22.50;99.90;;;-141.84;44.14;19919.53;5070818;28;20231;-61
2022/06/10 09:22:39;;;;;;;3.28;2.30;;;22.50;99.90;;;-141.84;43.13;19903.25;5070104;28;20316;-60
2022/06/10 09:25:13;;;;;;;3.80;2.75;;;22.40;99.90;;;-141.84;44.07;19844.31;5070724;28;20234;-60
2022/06/10 09:27:44;;;;;;;6.20;3.42;;;22.20;99.90;;;-141.84;43.95;19844.31;5070575;28;20228;-60
2022/06/10 09:30:18;;;;;;;5.72;4.57;;;22.20;99.90;;;-141.84;43.50;19850.41;5070664;28;20252;-61
2022/06/10 09:32:59;;;;;;;5.80;4.97;;;22.10;99.90;;;-141.84;44.13;19884.97;5070323;28;20227;-60
2022/06/10 09:35:51;;;;;;;4.40;4.10;;;22.10;99.90;;;-141.84;44.11;19889.03;5070700;28;20201;-60
2022/06/10 09:38:30;;;;;;;3.42;3.10;;;22.20;99.90;;;-141.84;42.28;19919.53;5070560;28;20605;-60
2022/06/10 09:41:12;;;;;;;3.75;2.90;;;22.20;99.90;;;-141.84;42.25;19960.16;5069876;28;20200;-61
2022/06/10 09:44:03;;;;;;;5.97;2.78;;;22.30;99.90;;;-141.84;43.50;19903.25;5068444;28;20311;-60
2022/06/10 09:47:07;;;;;;;3.83;2.70;;;22.20;99.90;;;-141.84;42.90;19893.09;5059916;28;20216;-59
2022/06/10 09:50:00;;;;;;;3.70;3.28;;;22.10;99.90;;;-141.84;43.54;19876.84;5069420;28;20223;-61
2022/06/10 09:52:36;;;;;;;3.50;2.40;;;22.20;99.90;;;-141.84;43.77;19852.44;5073273;28;20640;-61
2022/06/10 09:55:28;;;;;;;3.42;2.40;;;22.20;99.90;;;-141.84;42.29;19927.66;5069632;28;20308;-61
2022/06/10 09:58:22;;;;;;;3.22;2.60;;;22.30;99.90;;;-141.84;41.96;19956.09;5068169;28;20217;-60
2022/06/10 10:00:59;;;;;;;3.17;1.83;;;22.30;99.90;;;-141.84;40.77;19986.59;5073890;28;20785;-60
2022/06/10 10:04:07;;;;;;;2.00;1.70;;;22.40;99.90;;;-141.84;41.13;19960.16;5073841;28;20227;-62
2022/06/10 10:06:42;;;;;;;2.78;1.80;;;22.40;99.90;;;-141.84;41.64;19919.53;5065891;28;20216;-61
2022/06/10 10:09:26;;;;;;;4.22;2.08;;;22.30;99.90;;;-141.84;40.50;19986.59;5074400;28;20230;-61
2022/06/10 10:12:14;;;;;;;6.13;1.90;;;22.30;99.90;;;-141.84;40.99;20008.94;5086370;28;20303;-61
2022/06/10 10:14:54;;;;;;;4.25;2.05;;;22.40;99.90;;;-141.84;41.73;19998.78;5075263;28;20224;-61
2022/06/10 10:17:57;;;;;;;5.10;2.10;;;22.40;99.90;;;-141.84;42.01;19986.59;5073708;28;20283;-60
2022/06/10 10:20:48;;;;;;;2.78;2.00;;;22.50;99.90;;;-141.84;40.26;20015.03;5073881;28;20204;-60
2022/06/10 10:23:23;;;;;;;2.50;1.90;;;22.50;99.90;;;-141.84;39.28;20059.75;5073318;28;20192;-60
2022/06/10 10:25:51;;;;;;;3.20;2.00;;;22.60;99.90;;;-141.84;39.15;20051.63;5076889;28;20192;-60
2022/06/10 10:28:25;;;;;;;4.25;2.10;;;22.50;99.90;;;-141.84;39.62;20074.00;5072660;28;20346;-61
2022/06/10 10:31:05;;;;;;;3.85;1.98;;;22.30;99.90;;;-141.84;41.36;20025.22;5080388;28;20257;-61
2022/06/10 10:33:33;;;;;;;5.00;2.50;;;22.40;99.90;;;-141.84;41.10;20017.09;5089409;28;20733;-59
2022/06/10 10:36:11;;;;;;;4.18;2.00;;;22.40;99.90;;;-141.84;41.27;19998.78;5087005;28;20285;-60
2022/06/10 10:38:44;;;;;;;2.63;2.13;;;22.50;99.90;;;-141.84;39.88;20069.94;5073199;28;20344;-61
2022/06/10 10:41:33;;;;;;;2.33;2.05;;;22.60;99.90;;;-141.84;39.69;20086.19;5073408;28;20325;-60
2022/06/10 10:44:06;;;;;;;2.05;1.60;;;22.50;99.90;;;-141.84;40.09;20090.25;5062197;28;20296;-61
2022/06/10 10:46:42;;;;;;;4.00;2.10;;;22.60;99.90;;;-141.84;40.19;20061.78;5072762;28;20244;-60
2022/06/10 10:49:26;;;;;;;4.40;1.85;;;22.70;99.90;;;-141.84;40.17;20143.09;5072474;28;20235;-60
2022/06/10 10:51:56;;;;;;;2.00;1.80;;;23.10;99.90;;;-141.84;37.99;20234.56;5073891;28;20311;-60
2022/06/10 10:54:29;;;;;;;4.05;2.15;;;23.40;99.90;;;-141.84;37.83;20273.19;5082609;28;20254;-60